sensor_id;sensor_type;location;lat;lon;timestamp;P1;durP1;ratioP1;P2;durP2;ratioP2
3726;SDS011;1879;45.876;12.300;2022-12-29T00:01:07;30.83;;;24.50;;
3726;SDS011;1879;45.876;12.300;2022-12-29T00:03:34;26.17;;;21.93;;
3726;SDS011;1879;45.876;12.300;2022-12-29T00:06:02;31.33;;;23.70;;
3726;SDS011;1879;45.876;12.300;2022-12-29T00:08:29;28.20;;;23.93;;
3726;SDS011;1879;45.876;12.300;2022-12-29T00:11:05;26.63;;;23.83;;
3726;SDS011;1879;45.876;12.300;2022-12-29T00:13:33;24.53;;;21.93;;
3726;SDS011;1879;45.876;12.300;2022-12-29T00:16:18;25.53;;;22.13;;
3726;SDS011;1879;45.876;12.300;2022-12-29T00:18:45;27.37;;;22.23;;
3726;SDS011;1879;45.876;12.300;2022-12-29T00:21:14;28.53;;;21.83;;
3726;SDS011;1879;45.876;12.300;2022-12-29T00:24:00;29.30;;;24.00;;
3726;SDS011;1879;45.876;12.300;2022-12-29T00:26:47;25.43;;;22.17;;
3726;SDS011;1879;45.876;12.300;2022-12-29T00:29:33;27.37;;;24.10;;
3726;SDS011;1879;45.876;12.300;2022-12-29T00:32:17;27.33;;;22.47;;
3726;SDS011;1879;45.876;12.300;2022-12-29T00:35:04;27.03;;;22.87;;
3726;SDS011;1879;45.876;12.300;2022-12-29T00:37:37;22.30;;;19.97;;
3726;SDS011;1879;45.876;12.300;2022-12-29T00:40:24;22.20;;;19.53;;
3726;SDS011;1879;45.876;12.300;2022-12-29T00:43:08;24.97;;;20.30;;
3726;SDS011;1879;45.876;12.300;2022-12-29T00:45:53;22.00;;;19.60;;
3726;SDS011;1879;45.876;12.300;2022-12-29T00:48:19;22.03;;;18.33;;
3726;SDS011;1879;45.876;12.300;2022-12-29T00:51:00;20.83;;;18.63;;
3726;SDS011;1879;45.876;12.300;2022-12-29T00:53:29;21.23;;;18.50;;
3726;SDS011;1879;45.876;12.300;2022-12-29T00:55:55;19.87;;;17.10;;
3726;SDS011;1879;45.876;12.300;2022-12-29T00:58:22;20.90;;;17.07;;
3726;SDS011;1879;45.876;12.300;2022-12-29T01:00:50;21.10;;;18.87;;
3726;SDS011;1879;45.876;12.300;2022-12-29T01:03:16;21.93;;;19.50;;
3726;SDS011;1879;45.876;12.300;2022-12-29T01:05:43;20.77;;;18.63;;
3726;SDS011;1879;45.876;12.300;2022-12-29T01:08:10;22.87;;;19.60;;
3726;SDS011;1879;45.876;12.300;2022-12-29T01:10:39;22.00;;;19.80;;
3726;SDS011;1879;45.876;12.300;2022-12-29T01:13:06;22.70;;;19.93;;
3726;SDS011;1879;45.876;12.300;2022-12-29T01:15:33;20.93;;;17.40;;
3726;SDS011;1879;45.876;12.300;2022-12-29T01:18:00;24.27;;;19.60;;
3726;SDS011;1879;45.876;12.300;2022-12-29T01:20:27;20.83;;;18.50;;
3726;SDS011;1879;45.876;12.300;2022-12-29T01:22:54;21.03;;;18.83;;
3726;SDS011;1879;45.876;12.300;2022-12-29T01:25:21;21.30;;;19.10;;
3726;SDS011;1879;45.876;12.300;2022-12-29T01:27:49;23.53;;;19.73;;
3726;SDS011;1879;45.876;12.300;2022-12-29T01:30:16;22.73;;;20.43;;
3726;SDS011;1879;45.876;12.300;2022-12-29T01:32:43;23.50;;;20.10;;
3726;SDS011;1879;45.876;12.300;2022-12-29T01:35:10;23.60;;;21.10;;
3726;SDS011;1879;45.876;12.300;2022-12-29T01:37:37;24.20;;;20.43;;
3726;SDS011;1879;45.876;12.300;2022-12-29T01:40:04;22.10;;;19.80;;
3726;SDS011;1879;45.876;12.300;2022-12-29T01:42:32;21.17;;;19.07;;
3726;SDS011;1879;45.876;12.300;2022-12-29T01:45:02;20.97;;;18.43;;
3726;SDS011;1879;45.876;12.300;2022-12-29T01:47:30;21.03;;;18.77;;
3726;SDS011;1879;45.876;12.300;2022-12-29T01:50:03;21.53;;;19.23;;
3726;SDS011;1879;45.876;12.300;2022-12-29T01:52:33;22.30;;;19.90;;
3726;SDS011;1879;45.876;12.300;2022-12-29T01:55:07;20.67;;;18.50;;
3726;SDS011;1879;45.876;12.300;2022-12-29T01:57:36;21.03;;;18.83;;
3726;SDS011;1879;45.876;12.300;2022-12-29T02:00:09;19.30;;;17.30;;
3726;SDS011;1879;45.876;12.300;2022-12-29T02:02:38;20.23;;;17.97;;
3726;SDS011;1879;45.876;12.300;2022-12-29T02:05:09;22.13;;;18.90;;
3726;SDS011;1879;45.876;12.300;2022-12-29T02:07:40;21.07;;;18.87;;
3726;SDS011;1879;45.876;12.300;2022-12-29T02:10:07;22.10;;;19.83;;
3726;SDS011;1879;45.876;12.300;2022-12-29T02:12:34;21.47;;;17.90;;
3726;SDS011;1879;45.876;12.300;2022-12-29T02:15:02;23.13;;;20.63;;
3726;SDS011;1879;45.876;12.300;2022-12-29T02:17:34;20.30;;;18.27;;
3726;SDS011;1879;45.876;12.300;2022-12-29T02:20:17;19.20;;;17.20;;
3726;SDS011;1879;45.876;12.300;2022-12-29T02:23:23;20.40;;;18.17;;
3726;SDS011;1879;45.876;12.300;2022-12-29T02:26:23;18.70;;;16.70;;
3726;SDS011;1879;45.876;12.300;2022-12-29T02:32:33;19.10;;;16.97;;
3726;SDS011;1879;45.876;12.300;2022-12-29T02:35:08;18.37;;;16.50;;
3726;SDS011;1879;45.876;12.300;2022-12-29T02:37:42;23.40;;;18.47;;
3726;SDS011;1879;45.876;12.300;2022-12-29T02:40:22;24.97;;;18.73;;
3726;SDS011;1879;45.876;12.300;2022-12-29T02:42:55;20.90;;;17.90;;
3726;SDS011;1879;45.876;12.300;2022-12-29T02:45:30;19.63;;;17.53;;
3726;SDS011;1879;45.876;12.300;2022-12-29T02:48:03;25.70;;;19.53;;
3726;SDS011;1879;45.876;12.300;2022-12-29T02:50:36;21.83;;;19.43;;
3726;SDS011;1879;45.876;12.300;2022-12-29T02:53:06;21.20;;;17.13;;
3726;SDS011;1879;45.876;12.300;2022-12-29T02:55:36;20.97;;;18.60;;
3726;SDS011;1879;45.876;12.300;2022-12-29T02:58:17;22.00;;;19.57;;
3726;SDS011;1879;45.876;12.300;2022-12-29T03:00:53;22.03;;;18.63;;
3726;SDS011;1879;45.876;12.300;2022-12-29T03:03:35;19.00;;;17.10;;
3726;SDS011;1879;45.876;12.300;2022-12-29T03:06:14;19.43;;;17.50;;
3726;SDS011;1879;45.876;12.300;2022-12-29T03:08:55;22.07;;;17.60;;
3726;SDS011;1879;45.876;12.300;2022-12-29T03:11:30;19.53;;;17.47;;
3726;SDS011;1879;45.876;12.300;2022-12-29T03:14:22;20.70;;;17.63;;
3726;SDS011;1879;45.876;12.300;2022-12-29T03:17:14;19.50;;;17.43;;
3726;SDS011;1879;45.876;12.300;2022-12-29T03:19:52;21.27;;;18.00;;
3726;SDS011;1879;45.876;12.300;2022-12-29T03:22:25;20.93;;;18.73;;
3726;SDS011;1879;45.876;12.300;2022-12-29T03:24:57;19.50;;;17.40;;
3726;SDS011;1879;45.876;12.300;2022-12-29T03:27:29;21.57;;;18.07;;
3726;SDS011;1879;45.876;12.300;2022-12-29T03:30:00;19.23;;;16.73;;
3726;SDS011;1879;45.876;12.300;2022-12-29T03:32:31;25.43;;;18.27;;
3726;SDS011;1879;45.876;12.300;2022-12-29T03:35:03;18.37;;;16.43;;
3726;SDS011;1879;45.876;12.300;2022-12-29T03:37:32;19.73;;;16.80;;
3726;SDS011;1879;45.876;12.300;2022-12-29T03:40:05;17.80;;;15.63;;
3726;SDS011;1879;45.876;12.300;2022-12-29T03:42:34;20.93;;;16.13;;
3726;SDS011;1879;45.876;12.300;2022-12-29T03:45:03;17.77;;;15.87;;
3726;SDS011;1879;45.876;12.300;2022-12-29T03:47:32;17.30;;;15.50;;
3726;SDS011;1879;45.876;12.300;2022-12-29T03:49:59;19.33;;;14.60;;
3726;SDS011;1879;45.876;12.300;2022-12-29T03:52:28;16.77;;;14.70;;
3726;SDS011;1879;45.876;12.300;2022-12-29T03:54:55;16.50;;;14.80;;
3726;SDS011;1879;45.876;12.300;2022-12-29T03:57:21;16.43;;;14.57;;
3726;SDS011;1879;45.876;12.300;2022-12-29T03:59:51;16.07;;;13.50;;
3726;SDS011;1879;45.876;12.300;2022-12-29T04:02:18;16.67;;;14.40;;
3726;SDS011;1879;45.876;12.300;2022-12-29T04:04:44;16.70;;;14.07;;
3726;SDS011;1879;45.876;12.300;2022-12-29T04:07:11;16.50;;;14.20;;
3726;SDS011;1879;45.876;12.300;2022-12-29T04:09:40;16.17;;;14.00;;
3726;SDS011;1879;45.876;12.300;2022-12-29T04:12:07;18.90;;;13.67;;
3726;SDS011;1879;45.876;12.300;2022-12-29T04:14:34;16.37;;;14.57;;
3726;SDS011;1879;45.876;12.300;2022-12-29T04:17:01;16.70;;;14.10;;
3726;SDS011;1879;45.876;12.300;2022-12-29T04:19:28;17.60;;;14.80;;
3726;SDS011;1879;45.876;12.300;2022-12-29T04:21:54;16.47;;;13.87;;
3726;SDS011;1879;45.876;12.300;2022-12-29T04:24:21;19.50;;;13.93;;
3726;SDS011;1879;45.876;12.300;2022-12-29T04:26:50;14.93;;;13.03;;
3726;SDS011;1879;45.876;12.300;2022-12-29T04:29:17;16.10;;;14.30;;
3726;SDS011;1879;45.876;12.300;2022-12-29T04:31:44;15.77;;;14.10;;
3726;SDS011;1879;45.876;12.300;2022-12-29T04:34:10;18.43;;;15.07;;
3726;SDS011;1879;45.876;12.300;2022-12-29T04:36:37;19.30;;;16.37;;
3726;SDS011;1879;45.876;12.300;2022-12-29T04:39:05;17.93;;;16.20;;
3726;SDS011;1879;45.876;12.300;2022-12-29T04:41:32;19.13;;;16.80;;
3726;SDS011;1879;45.876;12.300;2022-12-29T04:44:01;17.50;;;15.67;;
3726;SDS011;1879;45.876;12.300;2022-12-29T04:46:28;18.20;;;16.40;;
3726;SDS011;1879;45.876;12.300;2022-12-29T04:48:55;17.83;;;16.07;;
3726;SDS011;1879;45.876;12.300;2022-12-29T04:51:22;18.73;;;16.07;;
3726;SDS011;1879;45.876;12.300;2022-12-29T04:53:49;17.50;;;15.70;;
3726;SDS011;1879;45.876;12.300;2022-12-29T04:56:16;16.93;;;15.10;;
3726;SDS011;1879;45.876;12.300;2022-12-29T04:58:43;18.20;;;15.80;;
3726;SDS011;1879;45.876;12.300;2022-12-29T05:01:11;18.43;;;15.73;;
3726;SDS011;1879;45.876;12.300;2022-12-29T05:03:38;18.13;;;15.97;;
3726;SDS011;1879;45.876;12.300;2022-12-29T05:06:05;15.80;;;14.17;;
3726;SDS011;1879;45.876;12.300;2022-12-29T05:08:33;18.80;;;16.47;;
3726;SDS011;1879;45.876;12.300;2022-12-29T05:11:00;18.83;;;15.70;;
3726;SDS011;1879;45.876;12.300;2022-12-29T05:13:27;18.13;;;15.27;;
3726;SDS011;1879;45.876;12.300;2022-12-29T05:15:53;16.97;;;15.10;;
3726;SDS011;1879;45.876;12.300;2022-12-29T05:18:22;18.20;;;16.23;;
3726;SDS011;1879;45.876;12.300;2022-12-29T05:20:49;17.93;;;16.17;;
3726;SDS011;1879;45.876;12.300;2022-12-29T05:23:16;16.40;;;14.67;;
3726;SDS011;1879;45.876;12.300;2022-12-29T05:25:43;18.23;;;16.33;;
3726;SDS011;1879;45.876;12.300;2022-12-29T05:28:11;19.50;;;15.80;;
3726;SDS011;1879;45.876;12.300;2022-12-29T05:30:38;17.27;;;15.47;;
3726;SDS011;1879;45.876;12.300;2022-12-29T05:33:05;20.07;;;16.80;;
3726;SDS011;1879;45.876;12.300;2022-12-29T05:35:33;17.77;;;15.93;;
3726;SDS011;1879;45.876;12.300;2022-12-29T05:38:00;17.67;;;15.70;;
3726;SDS011;1879;45.876;12.300;2022-12-29T05:40:27;19.97;;;15.50;;
3726;SDS011;1879;45.876;12.300;2022-12-29T05:42:54;19.60;;;17.60;;
3726;SDS011;1879;45.876;12.300;2022-12-29T05:45:21;19.17;;;16.63;;
3726;SDS011;1879;45.876;12.300;2022-12-29T05:47:48;18.17;;;15.33;;
3726;SDS011;1879;45.876;12.300;2022-12-29T05:50:15;19.47;;;15.67;;
3726;SDS011;1879;45.876;12.300;2022-12-29T05:52:43;18.90;;;17.10;;
3726;SDS011;1879;45.876;12.300;2022-12-29T05:55:11;18.70;;;16.80;;
3726;SDS011;1879;45.876;12.300;2022-12-29T05:57:38;16.97;;;15.27;;
3726;SDS011;1879;45.876;12.300;2022-12-29T06:00:06;18.50;;;16.10;;
3726;SDS011;1879;45.876;12.300;2022-12-29T06:02:33;17.60;;;15.80;;
3726;SDS011;1879;45.876;12.300;2022-12-29T06:05:00;22.10;;;17.37;;
3726;SDS011;1879;45.876;12.300;2022-12-29T06:07:27;17.90;;;15.90;;
3726;SDS011;1879;45.876;12.300;2022-12-29T06:09:56;21.27;;;18.10;;
3726;SDS011;1879;45.876;12.300;2022-12-29T06:12:23;18.63;;;16.63;;
3726;SDS011;1879;45.876;12.300;2022-12-29T06:14:50;23.00;;;20.47;;
3726;SDS011;1879;45.876;12.300;2022-12-29T06:17:17;21.27;;;19.03;;
3726;SDS011;1879;45.876;12.300;2022-12-29T06:19:43;25.23;;;18.07;;
3726;SDS011;1879;45.876;12.300;2022-12-29T06:22:10;21.47;;;17.83;;
3726;SDS011;1879;45.876;12.300;2022-12-29T06:24:38;22.27;;;19.50;;
3726;SDS011;1879;45.876;12.300;2022-12-29T06:27:06;20.67;;;18.00;;
3726;SDS011;1879;45.876;12.300;2022-12-29T06:29:33;20.27;;;17.30;;
3726;SDS011;1879;45.876;12.300;2022-12-29T06:32:02;21.27;;;18.90;;
3726;SDS011;1879;45.876;12.300;2022-12-29T06:34:29;23.20;;;19.53;;
3726;SDS011;1879;45.876;12.300;2022-12-29T06:36:56;20.83;;;18.83;;
3726;SDS011;1879;45.876;12.300;2022-12-29T06:39:23;19.17;;;16.00;;
3726;SDS011;1879;45.876;12.300;2022-12-29T06:41:51;21.40;;;19.13;;
3726;SDS011;1879;45.876;12.300;2022-12-29T06:44:20;21.00;;;17.90;;
3726;SDS011;1879;45.876;12.300;2022-12-29T06:46:47;17.13;;;15.33;;
3726;SDS011;1879;45.876;12.300;2022-12-29T06:49:14;23.80;;;17.30;;
3726;SDS011;1879;45.876;12.300;2022-12-29T06:51:41;16.00;;;14.40;;
3726;SDS011;1879;45.876;12.300;2022-12-29T06:54:08;18.80;;;16.20;;
3726;SDS011;1879;45.876;12.300;2022-12-29T06:56:35;15.70;;;14.10;;
3726;SDS011;1879;45.876;12.300;2022-12-29T06:59:02;17.50;;;15.60;;
3726;SDS011;1879;45.876;12.300;2022-12-29T07:01:31;16.23;;;14.60;;
3726;SDS011;1879;45.876;12.300;2022-12-29T07:03:59;15.73;;;14.13;;
3726;SDS011;1879;45.876;12.300;2022-12-29T07:06:26;17.77;;;15.10;;
3726;SDS011;1879;45.876;12.300;2022-12-29T07:08:53;17.80;;;15.97;;
3726;SDS011;1879;45.876;12.300;2022-12-29T07:11:22;21.23;;;18.17;;
3726;SDS011;1879;45.876;12.300;2022-12-29T07:13:49;22.17;;;19.90;;
3726;SDS011;1879;45.876;12.300;2022-12-29T07:16:16;20.20;;;17.40;;
3726;SDS011;1879;45.876;12.300;2022-12-29T07:18:45;19.83;;;16.57;;
3726;SDS011;1879;45.876;12.300;2022-12-29T07:21:12;16.93;;;15.20;;
3726;SDS011;1879;45.876;12.300;2022-12-29T07:23:39;17.40;;;15.33;;
3726;SDS011;1879;45.876;12.300;2022-12-29T07:26:06;18.37;;;16.47;;
3726;SDS011;1879;45.876;12.300;2022-12-29T07:28:35;17.20;;;15.40;;
3726;SDS011;1879;45.876;12.300;2022-12-29T07:31:03;16.20;;;14.50;;
3726;SDS011;1879;45.876;12.300;2022-12-29T07:33:30;15.97;;;14.23;;
3726;SDS011;1879;45.876;12.300;2022-12-29T07:35:59;14.77;;;13.27;;
3726;SDS011;1879;45.876;12.300;2022-12-29T07:38:26;21.70;;;19.50;;
3726;SDS011;1879;45.876;12.300;2022-12-29T07:40:56;21.30;;;19.20;;
3726;SDS011;1879;45.876;12.300;2022-12-29T07:43:23;19.93;;;16.47;;
3726;SDS011;1879;45.876;12.300;2022-12-29T07:45:50;22.17;;;17.30;;
3726;SDS011;1879;45.876;12.300;2022-12-29T07:48:17;21.03;;;17.73;;
3726;SDS011;1879;45.876;12.300;2022-12-29T07:50:44;21.47;;;19.20;;
3726;SDS011;1879;45.876;12.300;2022-12-29T07:53:12;22.33;;;19.50;;
3726;SDS011;1879;45.876;12.300;2022-12-29T07:55:39;24.40;;;17.50;;
3726;SDS011;1879;45.876;12.300;2022-12-29T07:58:06;20.77;;;16.70;;
3726;SDS011;1879;45.876;12.300;2022-12-29T08:00:33;21.23;;;18.33;;
3726;SDS011;1879;45.876;12.300;2022-12-29T08:03:00;24.10;;;17.90;;
3726;SDS011;1879;45.876;12.300;2022-12-29T08:05:27;20.33;;;17.93;;
3726;SDS011;1879;45.876;12.300;2022-12-29T08:07:54;22.33;;;17.33;;
3726;SDS011;1879;45.876;12.300;2022-12-29T08:10:23;20.50;;;18.33;;
3726;SDS011;1879;45.876;12.300;2022-12-29T08:12:50;20.40;;;17.70;;
3726;SDS011;1879;45.876;12.300;2022-12-29T08:15:17;23.40;;;18.43;;
3726;SDS011;1879;45.876;12.300;2022-12-29T08:17:44;25.30;;;19.97;;
3726;SDS011;1879;45.876;12.300;2022-12-29T08:20:11;23.17;;;19.73;;
3726;SDS011;1879;45.876;12.300;2022-12-29T08:22:38;23.53;;;21.03;;
3726;SDS011;1879;45.876;12.300;2022-12-29T08:25:06;27.60;;;21.53;;
3726;SDS011;1879;45.876;12.300;2022-12-29T08:27:34;26.17;;;23.37;;
3726;SDS011;1879;45.876;12.300;2022-12-29T08:30:02;31.10;;;22.10;;
3726;SDS011;1879;45.876;12.300;2022-12-29T08:32:29;20.73;;;18.50;;
3726;SDS011;1879;45.876;12.300;2022-12-29T08:34:56;26.57;;;21.60;;
3726;SDS011;1879;45.876;12.300;2022-12-29T08:37:23;20.43;;;18.07;;
3726;SDS011;1879;45.876;12.300;2022-12-29T08:39:50;22.30;;;19.30;;
3726;SDS011;1879;45.876;12.300;2022-12-29T08:42:19;27.63;;;21.87;;
3726;SDS011;1879;45.876;12.300;2022-12-29T08:44:47;23.97;;;21.37;;
3726;SDS011;1879;45.876;12.300;2022-12-29T08:47:14;24.10;;;20.30;;
3726;SDS011;1879;45.876;12.300;2022-12-29T08:49:41;22.57;;;19.43;;
3726;SDS011;1879;45.876;12.300;2022-12-29T08:52:08;25.20;;;20.40;;
3726;SDS011;1879;45.876;12.300;2022-12-29T08:54:35;24.97;;;22.20;;
3726;SDS011;1879;45.876;12.300;2022-12-29T08:57:02;30.47;;;22.60;;
3726;SDS011;1879;45.876;12.300;2022-12-29T08:59:29;26.57;;;21.87;;
3726;SDS011;1879;45.876;12.300;2022-12-29T09:01:57;27.73;;;21.60;;
3726;SDS011;1879;45.876;12.300;2022-12-29T09:04:25;29.53;;;24.70;;
3726;SDS011;1879;45.876;12.300;2022-12-29T09:06:52;34.77;;;29.47;;
3726;SDS011;1879;45.876;12.300;2022-12-29T09:09:19;35.37;;;29.07;;
3726;SDS011;1879;45.876;12.300;2022-12-29T09:11:46;32.10;;;25.73;;
3726;SDS011;1879;45.876;12.300;2022-12-29T09:14:13;30.00;;;25.30;;
3726;SDS011;1879;45.876;12.300;2022-12-29T09:17:16;26.90;;;24.00;;
3726;SDS011;1879;45.876;12.300;2022-12-29T09:20:00;27.03;;;24.13;;
3726;SDS011;1879;45.876;12.300;2022-12-29T09:22:27;27.63;;;24.63;;
3726;SDS011;1879;45.876;12.300;2022-12-29T09:24:54;35.73;;;28.50;;
3726;SDS011;1879;45.876;12.300;2022-12-29T09:27:21;33.73;;;27.10;;
3726;SDS011;1879;45.876;12.300;2022-12-29T09:29:48;36.10;;;28.43;;
3726;SDS011;1879;45.876;12.300;2022-12-29T09:32:16;37.30;;;26.37;;
3726;SDS011;1879;45.876;12.300;2022-12-29T09:34:45;37.03;;;29.30;;
3726;SDS011;1879;45.876;12.300;2022-12-29T09:37:15;40.53;;;30.53;;
3726;SDS011;1879;45.876;12.300;2022-12-29T09:39:42;33.93;;;30.37;;
3726;SDS011;1879;45.876;12.300;2022-12-29T09:42:11;37.07;;;27.77;;
3726;SDS011;1879;45.876;12.300;2022-12-29T09:44:48;44.13;;;30.57;;
3726;SDS011;1879;45.876;12.300;2022-12-29T09:47:23;34.80;;;27.50;;
3726;SDS011;1879;45.876;12.300;2022-12-29T09:49:53;40.13;;;29.47;;
3726;SDS011;1879;45.876;12.300;2022-12-29T09:52:24;30.33;;;26.57;;
3726;SDS011;1879;45.876;12.300;2022-12-29T09:54:55;28.17;;;22.37;;
3726;SDS011;1879;45.876;12.300;2022-12-29T09:57:26;25.53;;;21.80;;
3726;SDS011;1879;45.876;12.300;2022-12-29T09:59:56;22.83;;;20.43;;
3726;SDS011;1879;45.876;12.300;2022-12-29T10:02:34;24.77;;;20.50;;
3726;SDS011;1879;45.876;12.300;2022-12-29T10:05:09;26.90;;;23.27;;
3726;SDS011;1879;45.876;12.300;2022-12-29T10:07:45;27.20;;;24.10;;
3726;SDS011;1879;45.876;12.300;2022-12-29T10:10:20;26.50;;;23.20;;
3726;SDS011;1879;45.876;12.300;2022-12-29T10:13:01;27.70;;;23.27;;
3726;SDS011;1879;45.876;12.300;2022-12-29T10:15:43;28.37;;;23.70;;
3726;SDS011;1879;45.876;12.300;2022-12-29T10:18:28;27.77;;;23.30;;
3726;SDS011;1879;45.876;12.300;2022-12-29T10:21:08;29.53;;;23.83;;
3726;SDS011;1879;45.876;12.300;2022-12-29T10:23:42;24.97;;;22.37;;
3726;SDS011;1879;45.876;12.300;2022-12-29T10:26:12;26.00;;;23.20;;
3726;SDS011;1879;45.876;12.300;2022-12-29T10:28:44;25.47;;;22.70;;
3726;SDS011;1879;45.876;12.300;2022-12-29T10:31:17;30.50;;;26.00;;
3726;SDS011;1879;45.876;12.300;2022-12-29T10:33:48;29.50;;;25.07;;
3726;SDS011;1879;45.876;12.300;2022-12-29T10:36:19;26.30;;;22.80;;
3726;SDS011;1879;45.876;12.300;2022-12-29T10:38:52;30.83;;;24.57;;
3726;SDS011;1879;45.876;12.300;2022-12-29T10:41:25;26.20;;;23.57;;
3726;SDS011;1879;45.876;12.300;2022-12-29T10:43:59;26.27;;;23.37;;
3726;SDS011;1879;45.876;12.300;2022-12-29T10:46:27;27.20;;;23.93;;
3726;SDS011;1879;45.876;12.300;2022-12-29T10:48:59;24.07;;;21.53;;
3726;SDS011;1879;45.876;12.300;2022-12-29T10:51:28;27.47;;;24.57;;
3726;SDS011;1879;45.876;12.300;2022-12-29T10:53:59;25.43;;;22.90;;
3726;SDS011;1879;45.876;12.300;2022-12-29T10:56:32;25.93;;;22.70;;
3726;SDS011;1879;45.876;12.300;2022-12-29T10:59:06;24.50;;;21.47;;
3726;SDS011;1879;45.876;12.300;2022-12-29T11:01:43;26.57;;;22.50;;
3726;SDS011;1879;45.876;12.300;2022-12-29T11:04:25;28.27;;;22.00;;
3726;SDS011;1879;45.876;12.300;2022-12-29T11:07:02;25.63;;;22.50;;
3726;SDS011;1879;45.876;12.300;2022-12-29T11:09:32;26.47;;;21.67;;
3726;SDS011;1879;45.876;12.300;2022-12-29T11:12:09;26.00;;;23.10;;
3726;SDS011;1879;45.876;12.300;2022-12-29T11:14:54;27.23;;;21.33;;
3726;SDS011;1879;45.876;12.300;2022-12-29T11:17:38;25.87;;;21.47;;
3726;SDS011;1879;45.876;12.300;2022-12-29T11:20:24;25.30;;;22.70;;
3726;SDS011;1879;45.876;12.300;2022-12-29T11:22:55;28.43;;;23.10;;
3726;SDS011;1879;45.876;12.300;2022-12-29T11:25:23;24.33;;;21.67;;
3726;SDS011;1879;45.876;12.300;2022-12-29T11:27:57;25.67;;;22.30;;
3726;SDS011;1879;45.876;12.300;2022-12-29T11:30:27;25.37;;;22.67;;
3726;SDS011;1879;45.876;12.300;2022-12-29T11:32:55;25.30;;;22.60;;
3726;SDS011;1879;45.876;12.300;2022-12-29T11:35:32;25.07;;;22.47;;
3726;SDS011;1879;45.876;12.300;2022-12-29T11:38:02;24.83;;;22.20;;
3726;SDS011;1879;45.876;12.300;2022-12-29T11:40:30;28.87;;;25.53;;
3726;SDS011;1879;45.876;12.300;2022-12-29T11:43:03;29.93;;;24.50;;
3726;SDS011;1879;45.876;12.300;2022-12-29T11:45:31;30.00;;;25.37;;
3726;SDS011;1879;45.876;12.300;2022-12-29T11:48:05;29.30;;;26.10;;
3726;SDS011;1879;45.876;12.300;2022-12-29T11:50:36;27.10;;;24.10;;
3726;SDS011;1879;45.876;12.300;2022-12-29T11:53:07;33.97;;;25.10;;
3726;SDS011;1879;45.876;12.300;2022-12-29T11:55:49;27.27;;;23.63;;
3726;SDS011;1879;45.876;12.300;2022-12-29T11:58:18;27.20;;;22.33;;
3726;SDS011;1879;45.876;12.300;2022-12-29T12:00:45;26.00;;;22.23;;
3726;SDS011;1879;45.876;12.300;2022-12-29T12:03:15;28.77;;;23.50;;
3726;SDS011;1879;45.876;12.300;2022-12-29T12:05:47;28.80;;;24.30;;
3726;SDS011;1879;45.876;12.300;2022-12-29T12:08:21;30.70;;;25.43;;
3726;SDS011;1879;45.876;12.300;2022-12-29T12:11:03;31.73;;;26.13;;
3726;SDS011;1879;45.876;12.300;2022-12-29T12:13:37;30.73;;;25.43;;
3726;SDS011;1879;45.876;12.300;2022-12-29T12:16:08;29.60;;;24.23;;
3726;SDS011;1879;45.876;12.300;2022-12-29T12:18:40;28.57;;;24.00;;
3726;SDS011;1879;45.876;12.300;2022-12-29T12:21:15;33.77;;;23.63;;
3726;SDS011;1879;45.876;12.300;2022-12-29T12:23:56;27.60;;;22.97;;
3726;SDS011;1879;45.876;12.300;2022-12-29T12:26:35;30.20;;;25.37;;
3726;SDS011;1879;45.876;12.300;2022-12-29T12:29:08;27.73;;;24.13;;
3726;SDS011;1879;45.876;12.300;2022-12-29T12:31:43;30.07;;;23.60;;
3726;SDS011;1879;45.876;12.300;2022-12-29T12:34:15;31.43;;;24.80;;
3726;SDS011;1879;45.876;12.300;2022-12-29T12:36:51;27.20;;;23.60;;
3726;SDS011;1879;45.876;12.300;2022-12-29T12:39:31;24.40;;;21.47;;
3726;SDS011;1879;45.876;12.300;2022-12-29T12:42:11;30.87;;;24.57;;
3726;SDS011;1879;45.876;12.300;2022-12-29T12:44:51;31.73;;;24.97;;
3726;SDS011;1879;45.876;12.300;2022-12-29T12:47:29;28.57;;;23.73;;
3726;SDS011;1879;45.876;12.300;2022-12-29T12:53:05;30.60;;;25.20;;
3726;SDS011;1879;45.876;12.300;2022-12-29T12:55:49;36.20;;;26.53;;
3726;SDS011;1879;45.876;12.300;2022-12-29T12:58:26;32.67;;;24.43;;
3726;SDS011;1879;45.876;12.300;2022-12-29T13:01:06;27.67;;;24.33;;
3726;SDS011;1879;45.876;12.300;2022-12-29T13:03:47;32.20;;;23.90;;
3726;SDS011;1879;45.876;12.300;2022-12-29T13:06:26;28.93;;;23.07;;
3726;SDS011;1879;45.876;12.300;2022-12-29T13:09:15;25.93;;;23.07;;
3726;SDS011;1879;45.876;12.300;2022-12-29T13:11:55;33.90;;;25.60;;
3726;SDS011;1879;45.876;12.300;2022-12-29T13:14:39;31.63;;;24.60;;
3726;SDS011;1879;45.876;12.300;2022-12-29T13:17:12;32.50;;;26.40;;
3726;SDS011;1879;45.876;12.300;2022-12-29T13:19:45;31.13;;;24.00;;
3726;SDS011;1879;45.876;12.300;2022-12-29T13:22:20;30.17;;;25.33;;
3726;SDS011;1879;45.876;12.300;2022-12-29T13:24:58;27.83;;;23.83;;
3726;SDS011;1879;45.876;12.300;2022-12-29T13:27:55;30.60;;;26.20;;
3726;SDS011;1879;45.876;12.300;2022-12-29T13:30:28;28.73;;;24.37;;
3726;SDS011;1879;45.876;12.300;2022-12-29T13:33:03;30.77;;;24.67;;
3726;SDS011;1879;45.876;12.300;2022-12-29T13:35:38;29.97;;;24.20;;
3726;SDS011;1879;45.876;12.300;2022-12-29T13:38:16;31.20;;;24.27;;
3726;SDS011;1879;45.876;12.300;2022-12-29T13:40:49;29.60;;;23.67;;
3726;SDS011;1879;45.876;12.300;2022-12-29T13:43:20;30.17;;;24.17;;
3726;SDS011;1879;45.876;12.300;2022-12-29T13:45:50;30.07;;;24.50;;
3726;SDS011;1879;45.876;12.300;2022-12-29T13:48:25;30.20;;;24.90;;
3726;SDS011;1879;45.876;12.300;2022-12-29T13:51:00;29.87;;;22.60;;
3726;SDS011;1879;45.876;12.300;2022-12-29T13:53:33;30.77;;;24.33;;
3726;SDS011;1879;45.876;12.300;2022-12-29T13:56:08;27.70;;;23.80;;
3726;SDS011;1879;45.876;12.300;2022-12-29T13:58:44;30.47;;;25.13;;
3726;SDS011;1879;45.876;12.300;2022-12-29T14:01:17;31.20;;;25.40;;
3726;SDS011;1879;45.876;12.300;2022-12-29T14:03:49;29.40;;;24.50;;
3726;SDS011;1879;45.876;12.300;2022-12-29T14:06:27;30.47;;;24.10;;
3726;SDS011;1879;45.876;12.300;2022-12-29T14:08:57;28.83;;;25.40;;
3726;SDS011;1879;45.876;12.300;2022-12-29T14:11:31;33.93;;;26.20;;
3726;SDS011;1879;45.876;12.300;2022-12-29T14:14:09;30.50;;;26.60;;
3726;SDS011;1879;45.876;12.300;2022-12-29T14:16:39;29.57;;;24.77;;
3726;SDS011;1879;45.876;12.300;2022-12-29T14:19:10;30.80;;;26.00;;
3726;SDS011;1879;45.876;12.300;2022-12-29T14:21:40;31.90;;;25.27;;
3726;SDS011;1879;45.876;12.300;2022-12-29T14:24:27;32.17;;;24.90;;
3726;SDS011;1879;45.876;12.300;2022-12-29T14:33:15;33.53;;;26.30;;
3726;SDS011;1879;45.876;12.300;2022-12-29T14:35:43;35.73;;;26.10;;
3726;SDS011;1879;45.876;12.300;2022-12-29T14:38:15;33.87;;;28.53;;
3726;SDS011;1879;45.876;12.300;2022-12-29T14:40:44;32.90;;;27.73;;
3726;SDS011;1879;45.876;12.300;2022-12-29T14:43:17;30.37;;;27.07;;
3726;SDS011;1879;45.876;12.300;2022-12-29T14:45:52;35.93;;;26.70;;
3726;SDS011;1879;45.876;12.300;2022-12-29T14:51:16;28.23;;;25.20;;
3726;SDS011;1879;45.876;12.300;2022-12-29T14:53:46;32.50;;;27.60;;
3726;SDS011;1879;45.876;12.300;2022-12-29T14:56:15;33.73;;;26.40;;
3726;SDS011;1879;45.876;12.300;2022-12-29T14:58:49;33.67;;;27.73;;
3726;SDS011;1879;45.876;12.300;2022-12-29T15:01:20;31.45;;;27.13;;
3726;SDS011;1879;45.876;12.300;2022-12-29T15:03:53;33.87;;;27.77;;
3726;SDS011;1879;45.876;12.300;2022-12-29T15:06:23;41.00;;;28.37;;
3726;SDS011;1879;45.876;12.300;2022-12-29T15:08:54;37.57;;;30.30;;
3726;SDS011;1879;45.876;12.300;2022-12-29T15:11:30;33.90;;;28.37;;
3726;SDS011;1879;45.876;12.300;2022-12-29T15:17:08;33.80;;;29.00;;